Latest Coastal Weather Observations for Gunn Point

IDD60701

Issued at 5:41 am CST Wednesday 8 July 2015 (issued every 10 minutes, with the page automatically refreshed every 10 minutes)

About coastal observations | Map of coastal stations | Coastal observations for NT | Marine services | Other Formats
Station Details ID: 014023 Name: GUNN POINT Lat: -12.25 Lon: 131.04 Height: 25.0 m
Data from the previous 72 hours. | See also: Recent months for locations in Northern Territory
Date/Time
CST
Temp

°C
Wind Pressure Rain
since 9am
mm
Weather Cloud Vis
km
Sea
Height
m
Swell
Dir
 
Speed
knots
Gust
knots
hPa Trend Height
m
Period
s
Dir
07/05:30pm 27.4 NE 5 10 1010.3 - 0.0 - - - - - - -
07/05:00pm 27.8 NE 6 9 1010.1 - 0.0 - - - - - - -
07/04:30pm 28.4 NE 7 11 1010.0 - 0.0 - - - - - - -
07/04:00pm 28.1 NE 8 15 1010.1 - 0.0 - - - - - - -
07/03:30pm 28.5 NE 8 15 1010.2 - 0.0 - - - - - - -
07/03:00pm 28.9 NNE 8 14 1010.5 - 0.0 - - - - - - -
07/02:30pm 29.4 NE 6 10 1010.8 - 0.0 - - - - - - -
07/02:00pm 29.7 ENE 7 12 1011.1 - 0.0 - - - - - - -
07/01:30pm 30.1 E 7 12 1011.6 - 0.0 - - - - - - -
07/01:00pm 29.2 E 8 16 1011.9 - 0.0 - - - - - - -
07/12:30pm 29.4 ENE 9 16 1012.3 - 0.0 - - - - - - -
07/12:00pm 28.7 E 10 16 1012.6 - 0.0 - - - - - - -
07/11:30am 28.3 E 11 18 1013.2 - 0.0 - - - - - - -
07/11:00am 27.6 ESE 10 17 1013.6 - 0.0 - - - - - - -
07/10:30am 27.4 E 9 16 1013.7 - 0.0 - - - - - - -
07/10:00am 26.3 E 8 15 1013.7 - 0.0 - - - - - - -
07/09:30am 24.6 E 7 13 1013.8 - 0.0 - - - - - - -
07/09:00am 23.9 E 5 10 1013.8 - - - - - - - - -
07/08:30am 23.0 E 5 11 1013.8 - - - - - - - - -
07/08:00am 22.2 E 6 12 1013.6 - - - - - - - - -
07/07:30am 22.0 E 6 10 1013.4 - - - - - - - - -
07/07:00am 21.9 E 6 11 1013.0 - - - - - - - - -
07/06:30am 21.1 ESE 4 6 1012.8 - - - - - - - - -
07/06:00am 20.7 SE 2 4 1012.6 - - - - - - - - -
07/05:30am 20.7 SE 2 4 1012.6 - - - - - - - - -
07/05:00am 20.8 SE 1 3 1012.5 - - - - - - - - -
07/04:30am 20.8 SE 2 3 1012.2 - - - - - - - - -
07/04:00am 20.4 SSE 3 4 1011.9 - - - - - - - - -
07/03:30am 19.5 SSE 2 4 1011.7 - - - - - - - - -
07/03:00am 19.6 SE 2 3 1011.6 - - - - - - - - -
07/02:30am 19.3 SSE 2 3 1011.8 - - - - - - - - -
07/02:00am 19.1 SSE 2 2 1011.8 - - - - - - - - -
07/01:30am 19.3 CALM 0 0 1011.8 - - - - - - - - -
07/01:00am 19.8 CALM 0 0 1012.0 - - - - - - - - -
07/12:30am 19.7 CALM 0 0 1012.0 - - - - - - - - -
07/12:00am 20.1 CALM 0 1 1012.2 - - - - - - - - -
 
Date/Time
CST
Temp

°C
Wind Pressure Rain
since 9am
mm
Weather Cloud Vis
km
Sea
Height
m
Swell
Dir
 
Speed
knots
Gust
knots
hPa Trend Height
m
Period
s
Dir
06/11:30pm 20.2 CALM 0 1 1012.3 - - - - - - - - -
06/11:00pm 20.6 CALM 0 0 1012.4 - - - - - - - - -
06/10:30pm 20.5 CALM 0 0 1012.4 - - - - - - - - -
06/10:00pm 20.9 CALM 0 1 1012.4 - - - - - - - - -
06/09:30pm 21.1 CALM 0 0 1012.2 - - - - - - - - -
06/09:00pm 21.5 CALM 0 0 1012.1 - - - - - - - - -
06/08:30pm 22.1 CALM 0 0 1012.0 - - - - - - - - -
06/08:00pm 23.1 ENE 1 3 1011.8 - - - - - - - - -
06/07:30pm 23.9 NE 1 3 1011.4 - - - - - - - - -
06/07:00pm 24.9 NE 1 3 1011.1 - - - - - - - - -
06/06:30pm 25.8 NE 4 8 1011.0 - - - - - - - - -
06/06:00pm 26.6 NE 4 10 1010.7 - 0.0 - - - - - - -
06/05:30pm 27.5 NE 7 15 1010.4 - 0.0 - - - - - - -
06/05:00pm 28.3 NE 6 13 1010.2 - 0.0 - - - - - - -
06/04:30pm 28.8 NE 9 15 1010.2 - 0.0 - - - - - - -
06/04:00pm 30.0 NE 7 11 1010.2 - 0.0 - - - - - - -
06/03:30pm 29.9 ENE 9 16 1010.1 - 0.0 - - - - - - -
06/03:00pm 30.5 ENE 9 17 1010.1 - 0.0 - - - - - - -
06/02:30pm 29.9 ENE 11 17 1010.4 - 0.0 - - - - - - -
06/02:00pm 30.2 E 9 19 1010.8 - 0.0 - - - - - - -
06/01:30pm 29.4 E 10 15 1011.3 - 0.0 - - - - - - -
06/01:00pm 29.6 E 10 15 1011.7 - 0.0 - - - - - - -
06/12:30pm 28.7 ENE 13 18 1012.3 - 0.0 - - - - - - -
06/12:00pm 28.1 E 12 19 1012.7 - 0.0 - - - - - - -
06/11:30am 28.6 E 11 17 1013.1 - 0.0 - - - - - - -
06/11:00am 28.4 E 10 19 1013.4 - 0.0 - - - - - - -
06/10:30am 27.5 E 9 14 1013.8 - 0.0 - - - - - - -
06/10:00am 26.6 E 10 17 1014.0 - 0.0 - - - - - - -
06/09:30am 26.2 E 7 13 1014.0 - 0.0 - - - - - - -
06/09:00am 25.2 ESE 7 10 1014.0 - 0.0 - - - - - - -
06/08:30am 23.8 E 5 9 1014.0 - 0.0 - - - - - - -
06/08:00am 21.1 ESE 1 3 1013.8 - 0.0 - - - - - - -
06/07:30am 20.1 ESE 3 4 1013.6 - 0.0 - - - - - - -
06/07:00am 17.8 ESE 2 3 1013.3 - 0.0 - - - - - - -
06/06:30am 18.1 CALM 0 0 1013.0 - 0.0 - - - - - - -
06/06:00am 18.5 CALM 0 0 1012.9 - 0.0 - - - - - - -
06/05:30am 18.3 CALM 0 0 1012.8 - 0.0 - - - - - - -
06/05:00am 18.1 E 1 3 1012.6 - 0.0 - - - - - - -
06/04:30am 17.8 ESE 2 3 1012.3 - 0.0 - - - - - - -
06/04:00am 18.0 E 1 2 1012.3 - 0.0 - - - - - - -
06/03:30am 18.4 ENE 2 3 1012.2 - 0.0 - - - - - - -
06/03:00am 18.2 CALM 0 0 1012.3 - 0.0 - - - - - - -
06/02:30am 18.4 E 1 1 1012.6 - 0.0 - - - - - - -
06/02:00am 19.0 CALM 0 0 1012.7 - 0.0 - - - - - - -
06/01:30am 19.7 CALM 0 0 1012.6 - 0.0 - - - - - - -
06/01:00am 20.4 CALM 0 0 1012.6 - 0.0 - - - - - - -
06/12:30am 20.7 CALM 0 0 1012.7 - 0.0 - - - - - - -
06/12:00am 20.7 NE 3 4 1012.9 - 0.0 - - - - - - -
 
Date/Time
CST
Temp

°C
Wind Pressure Rain
since 9am
mm
Weather Cloud Vis
km
Sea
Height
m
Swell
Dir
 
Speed
knots
Gust
knots
hPa Trend Height
m
Period
s
Dir
05/11:30pm 21.0 CALM 0 0 1012.8 - 0.0 - - - - - - -
05/11:00pm 21.5 S 1 2 1013.0 - 0.0 - - - - - - -
05/10:30pm 21.6 CALM 0 0 1013.2 - 0.0 - - - - - - -
05/10:00pm 22.1 CALM 0 0 1013.4 - 0.0 - - - - - - -
05/09:30pm 22.6 CALM 0 0 1013.2 - 0.0 - - - - - - -
05/09:00pm 22.8 CALM 0 0 1013.3 - 0.0 - - - - - - -
05/08:30pm 22.8 CALM 0 0 1013.1 - 0.0 - - - - - - -
05/08:00pm 22.9 CALM 0 0 1012.8 - 0.0 - - - - - - -
05/07:30pm 23.0 CALM 0 0 1012.5 - 0.0 - - - - - - -
05/07:00pm 22.8 CALM 0 0 1012.3 - 0.0 - - - - - - -
05/06:30pm 24.0 CALM 0 1 1012.3 - 0.0 - - - - - - -
05/06:00pm 25.8 N 1 3 1012.0 - 0.0 - - - - - - -
05/05:30pm 27.0 WNW 3 7 1011.8 - 0.0 - - - - - - -
05/05:00pm 27.0 WNW 4 8 1011.7 - 0.0 - - - - - - -
05/04:30pm 27.6 W 5 9 1011.7 - 0.0 - - - - - - -
05/04:00pm 27.2 W 8 14 1011.6 - 0.0 - - - - - - -
05/03:30pm 29.0 WNW 4 6 1011.7 - 0.0 - - - - - - -
05/03:00pm 28.2 WNW 5 8 1012.1 - 0.0 - - - - - - -
05/02:30pm 28.3 W 6 11 1012.5 - 0.0 - - - - - - -
05/02:00pm 27.6 W 7 13 1012.8 - 0.0 - - - - - - -
05/01:30pm 28.2 WNW 5 9 1013.2 - 0.0 - - - - - - -
05/01:00pm 28.0 W 3 5 1013.5 - 0.0 - - - - - - -
05/12:30pm 28.9 SSE 3 7 1014.0 - 0.0 - - - - - - -
05/12:00pm 27.5 ESE 3 7 1014.3 - 0.0 - - - - - - -
05/11:30am 27.1 E 4 8 1014.8 - 0.0 - - - - - - -
05/11:00am 27.2 E 5 9 1015.2 - 0.0 - - - - - - -
05/10:30am 26.3 ESE 4 7 1015.1 - 0.0 - - - - - - -
05/10:00am 25.4 SE 2 4 1015.1 - 0.0 - - - - - - -
05/09:30am 23.9 SE 4 6 1015.2 - 0.0 - - - - - - -
05/09:00am 23.1 SE 3 5 1015.2 - - - - - - - - -
05/08:30am 20.8 SE 3 8 1015.1 - - - - - - - - -
05/08:00am 17.4 SE 1 2 1014.9 - - - - - - - - -
05/07:30am 15.3 CALM 0 2 1014.7 - - - - - - - - -
05/07:00am 16.0 SE 2 4 1014.6 - - - - - - - - -
05/06:30am 14.4 E 1 3 1014.0 - - - - - - - - -
05/06:00am 15.1 CALM 0 0 1013.6 - - - - - - - - -

Other Formats:

Comma delimited format used in spreadsheet applications
http://www.bom.gov.au/fwo/IDD60701/IDD60701.99501.axf

JavaScript Object Notation format (JSON) in row-major order
http://www.bom.gov.au/fwo/IDD60701/IDD60701.99501.json